Time;durP1;ratioP1;P1;durP2;ratioP2;P2;SDS_P1;SDS_P2;PMS_P1;PMS_P2;Temp;Humidity;BMP_temperature;BMP_pressure;BME280_temperature;BME280_humidity;BME280_pressure;Samples;Min_cycle;Max_cycle;Signal;HPM_P1;HPM_P2
2023/04/12 00:01:26;;;;;;;1.92;1.45;;;;;;;;;;5035969;28;20179;-58
2023/04/12 00:03:53;;;;;;;2.60;1.70;;;;;;;;;;5034961;28;20164;-58
2023/04/12 00:06:26;;;;;;;1.98;1.75;;;;;;;;;;5029500;28;20278;-58
2023/04/12 00:08:52;;;;;;;2.55;1.50;;;;;;;;;;5034986;28;20582;-58
2023/04/12 00:11:18;;;;;;;1.73;1.63;;;;;;;;;;5033620;28;20236;-58
2023/04/12 00:13:44;;;;;;;3.15;1.50;;;;;;;;;;5034722;28;20184;-59
2023/04/12 00:16:10;;;;;;;1.92;1.38;;;;;;;;;;5026314;28;20508;-58
2023/04/12 00:18:36;;;;;;;2.25;1.50;;;;;;;;;;5026612;28;20462;-58
2023/04/12 00:21:02;;;;;;;1.60;1.45;;;;;;;;;;5033927;28;20176;-59
2023/04/12 00:23:28;;;;;;;1.98;1.70;;;;;;;;;;5035010;28;20176;-59
2023/04/12 00:25:53;;;;;;;1.73;1.50;;;;;;;;;;5032899;28;20187;-59
2023/04/12 00:28:19;;;;;;;1.60;1.50;;;;;;;;;;5034314;28;20271;-58
2023/04/12 00:30:45;;;;;;;1.63;1.52;;;;;;;;;;5034453;28;20452;-58
2023/04/12 00:33:11;;;;;;;2.38;1.70;;;;;;;;;;5035239;28;20237;-58
2023/04/12 00:35:37;;;;;;;3.35;1.73;;;;;;;;;;5026182;28;20188;-58
2023/04/12 00:38:05;;;;;;;2.17;1.60;;;;;;;;;;5031652;28;20235;-58
2023/04/12 00:40:30;;;;;;;1.75;1.42;;;;;;;;;;5032911;28;20190;-58
2023/04/12 00:42:56;;;;;;;2.03;1.27;;;;;;;;;;5033823;28;20180;-58
2023/04/12 00:45:22;;;;;;;2.13;1.45;;;;;;;;;;5026923;28;20241;-58
2023/04/12 00:47:48;;;;;;;1.30;1.20;;;;;;;;;;5025610;28;20559;-58
2023/04/12 00:50:14;;;;;;;1.50;1.30;;;;;;;;;;5033047;28;20237;-58
2023/04/12 00:52:40;;;;;;;1.95;1.30;;;;;;;;;;5033680;28;20461;-58
2023/04/12 00:55:08;;;;;;;1.42;1.33;;;;;;;;;;5031752;28;20437;-58
2023/04/12 00:57:35;;;;;;;1.75;1.50;;;;;;;;;;5033645;28;20218;-58
2023/04/12 01:00:03;;;;;;;1.30;1.20;;;;;;;;;;5031135;28;20741;-58
2023/04/12 01:02:30;;;;;;;1.38;1.20;;;;;;;;;;5030569;28;20184;-58
2023/04/12 01:04:57;;;;;;;1.45;1.33;;;;;;;;;;5033122;28;20298;-58
2023/04/12 01:07:30;;;;;;;1.52;1.40;;;;;;;;;;5030084;28;20188;-58
2023/04/12 01:10:09;;;;;;;1.33;1.20;;;;;;;;;;5032399;28;20186;-58
2023/04/12 01:12:56;;;;;;;1.85;1.67;;;;;;;;;;5033938;28;20289;-58
2023/04/12 01:15:25;;;;;;;1.98;1.23;;;;;;;;;;5033179;28;20187;-58
2023/04/12 01:18:04;;;;;;;1.52;1.42;;;;;;;;;;5033237;28;20281;-58
2023/04/12 01:20:34;;;;;;;1.40;1.20;;;;;;;;;;5032634;28;20221;-58
2023/04/12 01:23:14;;;;;;;1.20;1.10;;;;;;;;;;5024676;28;20261;-58
2023/04/12 01:26:09;;;;;;;1.30;1.20;;;;;;;;;;5031954;28;20183;-58
2023/04/12 01:28:37;;;;;;;1.25;1.10;;;;;;;;;;5034286;28;20188;-58
2023/04/12 01:31:05;;;;;;;1.80;1.10;;;;;;;;;;5034211;28;20195;-58
2023/04/12 01:33:32;;;;;;;1.27;1.17;;;;;;;;;;5032146;28;20199;-58
2023/04/12 01:36:02;;;;;;;0.95;0.93;;;;;;;;;;5031470;28;20183;-57
2023/04/12 01:38:29;;;;;;;1.60;1.33;;;;;;;;;;5036452;28;20542;-57
2023/04/12 01:40:55;;;;;;;1.40;1.10;;;;;;;;;;5032139;28;20175;-57
2023/04/12 01:43:21;;;;;;;1.30;1.20;;;;;;;;;;5037356;28;20262;-57
2023/04/12 01:45:47;;;;;;;1.15;1.05;;;;;;;;;;5037158;28;20601;-57
2023/04/12 01:48:13;;;;;;;1.08;0.98;;;;;;;;;;5038183;28;20202;-58
2023/04/12 01:50:42;;;;;;;1.15;1.05;;;;;;;;;;5033044;28;20180;-58
2023/04/12 01:53:14;;;;;;;2.40;1.05;;;;;;;;;;5038288;28;20211;-58
2023/04/12 01:55:44;;;;;;;1.27;1.08;;;;;;;;;;5034599;28;20190;-58
2023/04/12 01:58:10;;;;;;;1.23;1.13;;;;;;;;;;5026579;28;20200;-58
2023/04/12 02:00:36;;;;;;;1.02;1.00;;;;;;;;;;5032570;28;20196;-58
2023/04/12 02:03:04;;;;;;;1.63;1.15;;;;;;;;;;5037339;28;20176;-58
2023/04/12 02:05:30;;;;;;;1.17;1.08;;;;;;;;;;5036954;28;20171;-58
2023/04/12 02:07:56;;;;;;;1.27;1.17;;;;;;;;;;5030254;28;20253;-58
2023/04/12 02:10:30;;;;;;;2.83;1.33;;;;;;;;;;5035016;28;20226;-58
2023/04/12 02:12:58;;;;;;;1.17;0.82;;;;;;;;;;5036729;28;20199;-58
2023/04/12 02:15:24;;;;;;;1.27;1.00;;;;;;;;;;5033378;28;20175;-58
2023/04/12 02:17:52;;;;;;;1.83;1.20;;;;;;;;;;5035663;28;20550;-58
2023/04/12 02:20:18;;;;;;;1.10;1.00;;;;;;;;;;5030879;28;20176;-58
2023/04/12 02:22:45;;;;;;;1.00;0.90;;;;;;;;;;5029540;28;20206;-57
2023/04/12 02:25:10;;;;;;;1.00;0.90;;;;;;;;;;5034262;28;20186;-58
2023/04/12 02:27:36;;;;;;;1.30;0.90;;;;;;;;;;5028941;28;20188;-58
2023/04/12 02:30:04;;;;;;;3.97;0.90;;;;;;;;;;5035360;28;20180;-58
2023/04/12 02:32:29;;;;;;;0.88;0.88;;;;;;;;;;5036320;28;20176;-58
2023/04/12 02:34:57;;;;;;;1.08;0.90;;;;;;;;;;5035405;28;20199;-58
2023/04/12 02:37:26;;;;;;;0.80;0.80;;;;;;;;;;5036229;28;20542;-58
2023/04/12 02:39:55;;;;;;;1.17;0.90;;;;;;;;;;5033735;28;20575;-58
2023/04/12 02:42:21;;;;;;;1.00;1.00;;;;;;;;;;5036188;28;20182;-58
2023/04/12 02:44:47;;;;;;;1.67;1.00;;;;;;;;;;5035203;28;20180;-58
2023/04/12 02:47:13;;;;;;;0.82;0.80;;;;;;;;;;5026266;28;20187;-58
2023/04/12 02:49:39;;;;;;;1.02;0.82;;;;;;;;;;5034495;28;20258;-58
2023/04/12 02:52:05;;;;;;;0.80;0.80;;;;;;;;;;5036507;28;20206;-58
2023/04/12 02:54:31;;;;;;;1.10;1.00;;;;;;;;;;5034074;28;20184;-58
2023/04/12 02:56:57;;;;;;;0.80;0.80;;;;;;;;;;5036210;28;20300;-58
2023/04/12 02:59:24;;;;;;;2.00;1.00;;;;;;;;;;5036159;28;20583;-58
2023/04/12 03:01:50;;;;;;;0.60;0.50;;;;;;;;;;5026025;28;20636;-58
2023/04/12 03:04:16;;;;;;;0.82;0.80;;;;;;;;;;5034614;28;20199;-58
2023/04/12 03:06:51;;;;;;;1.05;0.80;;;;;;;;;;5032762;28;20589;-58
2023/04/12 03:09:17;;;;;;;1.30;1.00;;;;;;;;;;5036336;28;20171;-58
2023/04/12 03:11:43;;;;;;;0.93;0.80;;;;;;;;;;5034032;28;20194;-58
2023/04/12 03:14:09;;;;;;;0.70;0.70;;;;;;;;;;5036629;28;20180;-58
2023/04/12 03:16:35;;;;;;;0.90;0.90;;;;;;;;;;5034211;28;20299;-58
2023/04/12 03:19:02;;;;;;;0.77;0.77;;;;;;;;;;5035976;28;20176;-58
2023/04/12 03:21:28;;;;;;;2.25;0.80;;;;;;;;;;5018529;28;20194;-58
2023/04/12 03:23:54;;;;;;;0.90;0.80;;;;;;;;;;5035377;28;20234;-58
2023/04/12 03:26:20;;;;;;;0.90;0.90;;;;;;;;;;5030042;28;20175;-58
2023/04/12 03:28:46;;;;;;;0.70;0.70;;;;;;;;;;5033026;28;20186;-58
2023/04/12 03:31:12;;;;;;;0.73;0.70;;;;;;;;;;5034792;28;20446;-58
2023/04/12 03:33:38;;;;;;;0.80;0.80;;;;;;;;;;5033143;28;20226;-58
2023/04/12 03:36:04;;;;;;;0.65;0.65;;;;;;;;;;5031816;28;20184;-58
2023/04/12 03:38:30;;;;;;;1.77;0.85;;;;;;;;;;5034965;28;20603;-58
2023/04/12 03:40:56;;;;;;;0.77;0.77;;;;;;;;;;5036132;28;20502;-58
2023/04/12 03:43:22;;;;;;;1.02;0.80;;;;;;;;;;5036156;28;20184;-59
2023/04/12 03:45:48;;;;;;;1.00;0.70;;;;;;;;;;5035588;28;20230;-58
2023/04/12 03:48:15;;;;;;;0.80;0.75;;;;;;;;;;5035747;28;20210;-58
2023/04/12 03:50:44;;;;;;;0.90;0.88;;;;;;;;;;5035687;28;20476;-58
2023/04/12 03:53:10;;;;;;;1.13;0.85;;;;;;;;;;5034897;28;20255;-58
2023/04/12 03:55:37;;;;;;;2.95;1.27;;;;;;;;;;5033629;28;20173;-59
2023/04/12 03:58:03;;;;;;;2.15;1.10;;;;;;;;;;5035219;28;20295;-59
2023/04/12 04:00:33;;;;;;;3.05;1.15;;;;;;;;;;5035452;28;20199;-58
2023/04/12 04:03:01;;;;;;;2.97;1.10;;;;;;;;;;5035761;28;20188;-59
2023/04/12 04:05:28;;;;;;;3.47;1.05;;;;;;;;;;5035612;28;20555;-58
2023/04/12 04:07:55;;;;;;;2.90;1.40;;;;;;;;;;5033317;28;20188;-59
2023/04/12 04:10:21;;;;;;;2.33;1.15;;;;;;;;;;5035077;28;20183;-59
2023/04/12 04:12:47;;;;;;;2.53;1.40;;;;;;;;;;5035153;28;20210;-59
2023/04/12 04:15:16;;;;;;;1.83;1.20;;;;;;;;;;5030632;28;20207;-59
2023/04/12 04:17:42;;;;;;;3.47;1.08;;;;;;;;;;5034083;28;20590;-58
2023/04/12 04:20:11;;;;;;;2.10;1.10;;;;;;;;;;5028003;28;20190;-58
2023/04/12 04:22:37;;;;;;;2.53;1.23;;;;;;;;;;5034924;28;20182;-58
2023/04/12 04:25:03;;;;;;;2.58;1.40;;;;;;;;;;5030749;28;20208;-58
2023/04/12 04:27:29;;;;;;;2.83;1.17;;;;;;;;;;5034162;28;20192;-59
2023/04/12 04:29:58;;;;;;;3.80;1.30;;;;;;;;;;5030560;28;20210;-58
2023/04/12 04:32:24;;;;;;;2.85;1.17;;;;;;;;;;5032925;28;20233;-58
2023/04/12 04:34:50;;;;;;;1.40;0.88;;;;;;;;;;5027407;28;20191;-58
2023/04/12 04:37:17;;;;;;;5.95;1.30;;;;;;;;;;5034003;28;20345;-58
2023/04/12 04:39:43;;;;;;;2.33;1.13;;;;;;;;;;5029842;28;20595;-58
2023/04/12 04:42:09;;;;;;;1.98;1.08;;;;;;;;;;5020890;28;20190;-58
2023/04/12 04:44:36;;;;;;;1.75;1.10;;;;;;;;;;5031804;28;20184;-59
2023/04/12 04:47:02;;;;;;;3.70;1.80;;;;;;;;;;5016256;28;20183;-58
2023/04/12 04:49:28;;;;;;;2.95;0.90;;;;;;;;;;5031034;28;20450;-58
2023/04/12 04:51:54;;;;;;;1.80;1.00;;;;;;;;;;5010495;28;20271;-58
2023/04/12 04:54:20;;;;;;;1.60;0.98;;;;;;;;;;5032132;28;20176;-58
2023/04/12 04:56:46;;;;;;;1.50;0.98;;;;;;;;;;5031261;28;20692;-58
2023/04/12 04:59:11;;;;;;;1.20;0.90;;;;;;;;;;5031415;28;20183;-58
2023/04/12 05:01:37;;;;;;;3.33;1.17;;;;;;;;;;5027338;28;20195;-58
2023/04/12 05:04:03;;;;;;;1.67;1.08;;;;;;;;;;5033355;28;20212;-60
2023/04/12 05:06:29;;;;;;;1.70;1.30;;;;;;;;;;5026523;28;20267;-61
2023/04/12 05:08:55;;;;;;;2.50;1.20;;;;;;;;;;5015215;28;20551;-60
2023/04/12 05:11:21;;;;;;;4.05;1.50;;;;;;;;;;5027271;28;20186;-60
2023/04/12 05:13:47;;;;;;;1.73;1.20;;;;;;;;;;5033656;28;20191;-60
2023/04/12 05:16:13;;;;;;;1.73;1.13;;;;;;;;;;5029335;28;20196;-60
2023/04/12 05:18:39;;;;;;;1.55;1.10;;;;;;;;;;5034355;28;20314;-60
2023/04/12 05:21:05;;;;;;;1.70;1.20;;;;;;;;;;5034085;28;20195;-60
2023/04/12 05:23:39;;;;;;;1.08;0.88;;;;;;;;;;5027211;28;20191;-60
2023/04/12 05:26:05;;;;;;;2.42;1.48;;;;;;;;;;5029578;28;20302;-60
2023/04/12 05:28:31;;;;;;;2.58;1.38;;;;;;;;;;5031040;28;20274;-59
2023/04/12 05:30:57;;;;;;;3.08;1.05;;;;;;;;;;5030699;28;20184;-59
2023/04/12 05:33:23;;;;;;;2.55;1.10;;;;;;;;;;5033692;28;20191;-60
2023/04/12 05:35:49;;;;;;;1.05;0.90;;;;;;;;;;5028859;28;20191;-59
2023/04/12 05:38:15;;;;;;;1.70;0.95;;;;;;;;;;5028248;28;20226;-59
2023/04/12 05:40:42;;;;;;;1.48;1.10;;;;;;;;;;5033566;28;20180;-59
2023/04/12 05:43:11;;;;;;;2.53;1.10;;;;;;;;;;5031178;28;20174;-60
2023/04/12 05:45:37;;;;;;;2.42;1.20;;;;;;;;;;5029706;28;20172;-60
2023/04/12 05:48:03;;;;;;;1.30;1.20;;;;;;;;;;5034062;28;20188;-59
2023/04/12 05:50:29;;;;;;;2.85;1.15;;;;;;;;;;5028950;28;20266;-59
2023/04/12 05:52:55;;;;;;;1.13;0.88;;;;;;;;;;5033074;28;20183;-59
2023/04/12 05:55:21;;;;;;;2.05;1.00;;;;;;;;;;5028304;28;20286;-59
2023/04/12 05:57:47;;;;;;;2.08;1.00;;;;;;;;;;5032588;28;20203;-59
2023/04/12 06:00:16;;;;;;;1.10;0.93;;;;;;;;;;5027951;28;20275;-59
2023/04/12 06:02:43;;;;;;;1.38;1.00;;;;;;;;;;5028064;28;20286;-59
2023/04/12 06:05:10;;;;;;;1.23;0.90;;;;;;;;;;5031029;28;20283;-59
2023/04/12 06:07:36;;;;;;;2.28;1.00;;;;;;;;;;5027307;28;20186;-59
2023/04/12 06:10:02;;;;;;;1.00;0.95;;;;;;;;;;5026453;28;20195;-59
2023/04/12 06:12:28;;;;;;;1.75;1.20;;;;;;;;;;5034074;28;20211;-59
2023/04/12 06:14:55;;;;;;;1.15;0.82;;;;;;;;;;5030733;28;20436;-59
2023/04/12 06:17:21;;;;;;;2.95;1.30;;;;;;;;;;5030340;28;20294;-59
2023/04/12 06:19:47;;;;;;;2.20;1.10;;;;;;;;;;5032567;28;20519;-59
2023/04/12 06:22:13;;;;;;;1.80;1.10;;;;;;;;;;5037595;28;20242;-59
2023/04/12 06:24:39;;;;;;;1.38;1.17;;;;;;;;;;5036006;28;20176;-59
2023/04/12 06:27:05;;;;;;;1.48;0.95;;;;;;;;;;5032658;28;20578;-59
2023/04/12 06:29:31;;;;;;;1.40;0.90;;;;;;;;;;5036258;28;20190;-59
2023/04/12 06:31:57;;;;;;;3.03;1.20;;;;;;;;;;5034184;28;20213;-59
2023/04/12 06:34:23;;;;;;;1.30;0.93;;;;;;;;;;5036375;28;20218;-59
2023/04/12 06:36:49;;;;;;;1.38;0.98;;;;;;;;;;5032953;28;20286;-59
2023/04/12 06:39:15;;;;;;;2.35;0.90;;;;;;;;;;5034520;28;20234;-59
2023/04/12 06:41:46;;;;;;;1.48;1.10;;;;;;;;;;5035004;28;20195;-59
2023/04/12 06:44:12;;;;;;;1.30;0.95;;;;;;;;;;5036116;28;20210;-59
2023/04/12 06:46:38;;;;;;;1.40;0.90;;;;;;;;;;5033177;28;20453;-59
2023/04/12 06:49:04;;;;;;;1.40;0.70;;;;;;;;;;5037275;28;20167;-59
2023/04/12 06:51:30;;;;;;;1.85;1.08;;;;;;;;;;5033232;28;20175;-59
2023/04/12 06:53:56;;;;;;;0.95;0.90;;;;;;;;;;5036158;28;20243;-58
2023/04/12 06:56:22;;;;;;;1.50;0.90;;;;;;;;;;5031661;28;20191;-58
2023/04/12 06:58:48;;;;;;;1.27;0.80;;;;;;;;;;5036044;28;20455;-58
2023/04/12 07:01:14;;;;;;;1.60;1.00;;;;;;;;;;5031313;28;20196;-58
2023/04/12 07:03:40;;;;;;;0.95;0.82;;;;;;;;;;5031387;28;20164;-58
2023/04/12 07:06:06;;;;;;;1.75;0.85;;;;;;;;;;5035803;28;20234;-58
2023/04/12 07:08:32;;;;;;;1.38;1.00;;;;;;;;;;5019383;28;20180;-58
2023/04/12 07:10:58;;;;;;;1.45;1.00;;;;;;;;;;5027222;28;20443;-58
2023/04/12 07:13:24;;;;;;;1.38;0.73;;;;;;;;;;5035917;28;20193;-58
2023/04/12 07:15:51;;;;;;;0.93;0.73;;;;;;;;;;5033108;28;20179;-58
2023/04/12 07:18:16;;;;;;;1.75;0.95;;;;;;;;;;5035580;28;20346;-58
2023/04/12 07:20:42;;;;;;;1.17;0.90;;;;;;;;;;5034102;28;20263;-58
2023/04/12 07:23:08;;;;;;;1.67;1.00;;;;;;;;;;5035258;28;20581;-58
2023/04/12 07:25:37;;;;;;;1.83;0.80;;;;;;;;;;5035221;28;20184;-58
2023/04/12 07:28:03;;;;;;;1.00;0.70;;;;;;;;;;5027747;28;20643;-59
2023/04/12 07:30:29;;;;;;;1.60;0.93;;;;;;;;;;5035959;28;20207;-58
2023/04/12 07:32:55;;;;;;;1.05;0.90;;;;;;;;;;5034731;28;20257;-58
2023/04/12 07:35:21;;;;;;;1.85;1.05;;;;;;;;;;5036244;28;20191;-58
2023/04/12 07:37:47;;;;;;;1.45;0.80;;;;;;;;;;5025240;28;20207;-58
2023/04/12 07:40:13;;;;;;;1.20;0.90;;;;;;;;;;5036096;28;20176;-59
2023/04/12 07:42:39;;;;;;;1.10;0.70;;;;;;;;;;5036165;28;20214;-58
2023/04/12 07:45:05;;;;;;;1.65;0.82;;;;;;;;;;5035684;28;20306;-58
2023/04/12 07:47:31;;;;;;;0.95;0.90;;;;;;;;;;5035706;28;20179;-58
2023/04/12 07:49:57;;;;;;;2.20;0.70;;;;;;;;;;5036033;28;20176;-58
2023/04/12 07:52:24;;;;;;;1.60;1.08;;;;;;;;;;5036111;28;20422;-58
2023/04/12 07:54:50;;;;;;;1.33;0.88;;;;;;;;;;5033933;28;20180;-58
2023/04/12 07:57:16;;;;;;;1.20;0.95;;;;;;;;;;5035733;28;20215;-59
2023/04/12 07:59:41;;;;;;;0.73;0.73;;;;;;;;;;5035790;28;20191;-58
2023/04/12 08:02:07;;;;;;;0.95;0.82;;;;;;;;;;5035823;28;20551;-58
2023/04/12 08:04:33;;;;;;;1.50;0.90;;;;;;;;;;5034463;28;20191;-58
2023/04/12 08:06:59;;;;;;;1.08;0.80;;;;;;;;;;5027910;28;20192;-58
2023/04/12 08:09:25;;;;;;;2.28;1.17;;;;;;;;;;5035538;28;20222;-58
2023/04/12 08:11:51;;;;;;;0.95;0.70;;;;;;;;;;5029779;28;20187;-58
2023/04/12 08:14:17;;;;;;;1.33;0.90;;;;;;;;;;5033765;28;20187;-58
2023/04/12 08:16:43;;;;;;;1.23;0.90;;;;;;;;;;5025714;28;20660;-58
2023/04/12 08:19:09;;;;;;;1.40;1.02;;;;;;;;;;5028496;28;20235;-58
2023/04/12 08:21:35;;;;;;;2.03;0.90;;;;;;;;;;5030593;28;20196;-58
2023/04/12 08:24:01;;;;;;;1.10;1.00;;;;;;;;;;5034189;28;20185;-58
2023/04/12 08:26:28;;;;;;;1.65;1.02;;;;;;;;;;5029162;28;20230;-58
2023/04/12 08:28:56;;;;;;;1.23;0.80;;;;;;;;;;5035367;28;20216;-58
2023/04/12 08:31:22;;;;;;;1.30;0.90;;;;;;;;;;5033652;28;20490;-58
2023/04/12 08:33:48;;;;;;;0.90;0.85;;;;;;;;;;5033685;28;20168;-58
2023/04/12 08:36:14;;;;;;;1.45;0.90;;;;;;;;;;5032475;28;20471;-58
2023/04/12 08:38:40;;;;;;;2.50;0.75;;;;;;;;;;5034650;28;20191;-58
2023/04/12 08:41:06;;;;;;;2.35;1.00;;;;;;;;;;5028967;28;20484;-58
2023/04/12 08:43:33;;;;;;;1.60;0.68;;;;;;;;;;5033472;28;20177;-58
2023/04/12 08:45:59;;;;;;;1.10;0.60;;;;;;;;;;5034140;28;20186;-58
2023/04/12 08:48:26;;;;;;;1.52;0.77;;;;;;;;;;5033956;28;20455;-58
2023/04/12 08:50:52;;;;;;;1.55;0.85;;;;;;;;;;5029899;28;20601;-57
2023/04/12 08:53:18;;;;;;;1.17;1.00;;;;;;;;;;5032973;28;20187;-58
2023/04/12 08:55:45;;;;;;;0.93;0.90;;;;;;;;;;5033000;28;20186;-58
2023/04/12 08:58:13;;;;;;;1.05;0.70;;;;;;;;;;5034569;28;20774;-57
2023/04/12 09:00:39;;;;;;;2.20;1.02;;;;;;;;;;5033143;28;20199;-57
2023/04/12 09:03:05;;;;;;;0.82;0.82;;;;;;;;;;5033759;28;20275;-57
2023/04/12 09:05:32;;;;;;;0.80;0.80;;;;;;;;;;5026265;28;20722;-58
2023/04/12 09:07:58;;;;;;;1.02;0.82;;;;;;;;;;5024249;28;20211;-58
2023/04/12 09:10:32;;;;;;;1.05;0.80;;;;;;;;;;5032671;28;20188;-58
2023/04/12 09:12:58;;;;;;;1.40;0.82;;;;;;;;;;5025738;28;20176;-58
2023/04/12 09:15:24;;;;;;;2.17;0.82;;;;;;;;;;5029762;28;20685;-58
2023/04/12 09:18:01;;;;;;;0.93;0.68;;;;;;;;;;5029714;28;20279;-58
2023/04/12 09:20:27;;;;;;;0.98;0.80;;;;;;;;;;5024447;28;20183;-58
2023/04/12 09:22:54;;;;;;;1.00;0.75;;;;;;;;;;5025302;28;20180;-58
2023/04/12 09:25:35;;;;;;;1.38;0.88;;;;;;;;;;5031192;28;20203;-58
2023/04/12 09:28:01;;;;;;;2.88;1.00;;;;;;;;;;5031055;28;20187;-58
2023/04/12 09:30:27;;;;;;;0.65;0.65;;;;;;;;;;5033449;28;20187;-58
2023/04/12 09:32:54;;;;;;;0.90;0.70;;;;;;;;;;5029776;28;20192;-58
2023/04/12 09:35:33;;;;;;;0.70;0.70;;;;;;;;;;5031458;28;20202;-58
2023/04/12 09:38:06;;;;;;;2.17;1.00;;;;;;;;;;5029974;28;20582;-58
2023/04/12 09:40:35;;;;;;;1.60;0.90;;;;;;;;;;5028842;28;20194;-58
2023/04/12 09:43:01;;;;;;;1.98;0.95;;;;;;;;;;5034209;28;20179;-58
2023/04/12 09:45:27;;;;;;;0.80;0.80;;;;;;;;;;5034000;28;20415;-58
2023/04/12 09:47:53;;;;;;;1.20;1.10;;;;;;;;;;5034174;28;20180;-58
2023/04/12 09:50:23;;;;;;;1.45;0.95;;;;;;;;;;5034243;28;20195;-58
2023/04/12 09:52:50;;;;;;;2.05;0.90;;;;;;;;;;5021329;28;20196;-58
2023/04/12 09:55:17;;;;;;;0.63;0.63;;;;;;;;;;5035083;28;20214;-58
2023/04/12 09:57:44;;;;;;;1.45;0.90;;;;;;;;;;5037071;28;20208;-58
2023/04/12 10:00:15;;;;;;;1.05;0.73;;;;;;;;;;5037885;28;20413;-58
2023/04/12 10:02:42;;;;;;;1.27;0.88;;;;;;;;;;5037871;28;20179;-58
2023/04/12 10:05:12;;;;;;;1.23;0.80;;;;;;;;;;5037775;28;20282;-58
2023/04/12 10:07:41;;;;;;;1.17;1.08;;;;;;;;;;5037817;28;20221;-58
2023/04/12 10:10:07;;;;;;;2.33;1.20;;;;;;;;;;5037278;28;20586;-58
2023/04/12 10:12:34;;;;;;;1.83;0.93;;;;;;;;;;5037614;28;20184;-58
2023/04/12 10:15:04;;;;;;;1.33;0.90;;;;;;;;;;5036935;28;20191;-58
2023/04/12 10:17:32;;;;;;;1.95;1.00;;;;;;;;;;5033598;28;20211;-58
2023/04/12 10:19:58;;;;;;;0.70;0.70;;;;;;;;;;5033792;28;20187;-58
2023/04/12 10:22:24;;;;;;;1.80;1.00;;;;;;;;;;5029426;28;20261;-58
2023/04/12 10:24:51;;;;;;;2.45;0.90;;;;;;;;;;5037163;28;20542;-58
2023/04/12 10:27:25;;;;;;;1.15;0.88;;;;;;;;;;5029238;28;20266;-58
2023/04/12 10:29:51;;;;;;;1.48;1.00;;;;;;;;;;5032353;28;20184;-58
2023/04/12 10:32:21;;;;;;;1.20;0.70;;;;;;;;;;5030576;28;20187;-58
2023/04/12 10:34:55;;;;;;;1.00;0.85;;;;;;;;;;5035224;28;20590;-58
2023/04/12 10:37:21;;;;;;;1.83;0.90;;;;;;;;;;5035016;28;20211;-58
2023/04/12 10:39:52;;;;;;;1.88;1.30;;;;;;;;;;5033124;28;20486;-58
2023/04/12 10:42:28;;;;;;;0.95;0.85;;;;;;;;;;5028908;28;20245;-58
2023/04/12 10:44:55;;;;;;;3.30;1.10;;;;;;;;;;5036492;28;20255;-58
2023/04/12 10:47:39;;;;;;;1.13;1.00;;;;;;;;;;5027685;28;20184;-58
2023/04/12 10:50:25;;;;;;;1.15;0.90;;;;;;;;;;5025627;28;20564;-58
2023/04/12 10:53:14;;;;;;;0.68;0.68;;;;;;;;;;5026980;28;20180;-58
2023/04/12 10:55:41;;;;;;;1.08;0.88;;;;;;;;;;5025761;28;20180;-58
2023/04/12 10:58:07;;;;;;;1.13;0.90;;;;;;;;;;5033437;28;20214;-58
2023/04/12 11:00:51;;;;;;;1.00;0.90;;;;;;;;;;5033520;28;20196;-58
2023/04/12 11:03:17;;;;;;;1.63;0.82;;;;;;;;;;5034896;28;20454;-58
2023/04/12 11:06:02;;;;;;;0.90;0.85;;;;;;;;;;5034810;28;20184;-58
2023/04/12 11:08:29;;;;;;;0.85;0.80;;;;;;;;;;5026570;28;20578;-58
2023/04/12 11:11:02;;;;;;;1.20;1.00;;;;;;;;;;5029718;28;20183;-58
2023/04/12 11:13:29;;;;;;;0.82;0.82;;;;;;;;;;5030375;28;20249;-58
2023/04/12 11:15:56;;;;;;;1.42;0.75;;;;;;;;;;5035412;28;20208;-58
2023/04/12 11:18:23;;;;;;;0.80;0.60;;;;;;;;;;5036742;28;20203;-58
2023/04/12 11:20:50;;;;;;;1.98;0.70;;;;;;;;;;5031336;28;20184;-58
2023/04/12 11:23:18;;;;;;;1.35;0.77;;;;;;;;;;5030670;28;20199;-58
2023/04/12 11:25:49;;;;;;;1.42;0.80;;;;;;;;;;5030052;28;20184;-58
2023/04/12 11:28:18;;;;;;;1.17;0.93;;;;;;;;;;5034158;28;20180;-58
2023/04/12 11:30:53;;;;;;;2.25;1.10;;;;;;;;;;5033156;28;20184;-58
2023/04/12 11:33:32;;;;;;;0.73;0.73;;;;;;;;;;5033831;28;20205;-58
2023/04/12 11:35:58;;;;;;;0.70;0.70;;;;;;;;;;5032372;28;20195;-58
2023/04/12 11:38:24;;;;;;;1.33;0.90;;;;;;;;;;5034830;28;20211;-59
2023/04/12 11:40:50;;;;;;;1.13;0.68;;;;;;;;;;5036227;28;20191;-58
2023/04/12 11:43:19;;;;;;;0.68;0.68;;;;;;;;;;5035796;28;20198;-58
2023/04/12 11:45:45;;;;;;;0.65;0.63;;;;;;;;;;5035510;28;20220;-59
2023/04/12 11:48:11;;;;;;;1.10;0.82;;;;;;;;;;5035873;28;20696;-58
2023/04/12 11:50:39;;;;;;;1.60;0.95;;;;;;;;;;5035500;28;20188;-58
2023/04/12 11:53:16;;;;;;;0.70;0.70;;;;;;;;;;5034899;28;20442;-58
2023/04/12 11:55:47;;;;;;;0.90;0.90;;;;;;;;;;5034785;28;20183;-58
2023/04/12 11:58:13;;;;;;;1.65;0.90;;;;;;;;;;5034848;28;20200;-58
2023/04/12 12:00:40;;;;;;;1.23;0.70;;;;;;;;;;5035657;28;20193;-58
2023/04/12 12:03:06;;;;;;;2.10;0.88;;;;;;;;;;5035405;28;20194;-58
2023/04/12 12:05:36;;;;;;;1.17;0.70;;;;;;;;;;5033824;28;20184;-58
2023/04/12 12:08:06;;;;;;;0.90;0.90;;;;;;;;;;5027193;28;20416;-58
2023/04/12 12:10:32;;;;;;;0.82;0.80;;;;;;;;;;5033111;28;20566;-58
2023/04/12 12:12:58;;;;;;;0.98;0.70;;;;;;;;;;5035410;28;20183;-58
2023/04/12 12:15:24;;;;;;;1.77;0.70;;;;;;;;;;5015918;28;20191;-59
2023/04/12 12:17:50;;;;;;;0.70;0.70;;;;;;;;;;5035209;28;20234;-59
2023/04/12 12:20:20;;;;;;;1.63;0.77;;;;;;;;;;5034567;28;20180;-59
2023/04/12 12:22:46;;;;;;;1.00;0.80;;;;;;;;;;5028602;28;20230;-59
2023/04/12 12:25:12;;;;;;;1.00;0.90;;;;;;;;;;5034499;28;20183;-59
2023/04/12 12:27:46;;;;;;;1.45;0.90;;;;;;;;;;5029051;28;20215;-59
2023/04/12 12:30:13;;;;;;;0.98;0.80;;;;;;;;;;5033394;28;20202;-59
2023/04/12 12:32:39;;;;;;;0.85;0.80;;;;;;;;;;5028384;28;20636;-58
2023/04/12 12:35:09;;;;;;;1.13;1.00;;;;;;;;;;5028486;28;20192;-58
2023/04/12 12:37:35;;;;;;;1.05;0.90;;;;;;;;;;5033378;28;20666;-58
2023/04/12 12:40:07;;;;;;;0.95;0.68;;;;;;;;;;5032460;28;20546;-58
2023/04/12 12:42:34;;;;;;;0.75;0.75;;;;;;;;;;5033329;28;20182;-58
2023/04/12 12:45:00;;;;;;;0.60;0.60;;;;;;;;;;5034125;28;20245;-58
2023/04/12 12:47:26;;;;;;;0.80;0.80;;;;;;;;;;5032974;28;20184;-58
2023/04/12 12:49:52;;;;;;;2.00;0.80;;;;;;;;;;5034098;28;20195;-58
2023/04/12 12:52:18;;;;;;;0.82;0.63;;;;;;;;;;5026576;28;20303;-58
2023/04/12 12:54:44;;;;;;;1.23;0.70;;;;;;;;;;5026913;28;20191;-57
2023/04/12 12:57:10;;;;;;;1.63;0.57;;;;;;;;;;5031281;28;20206;-57
2023/04/12 12:59:36;;;;;;;0.80;0.70;;;;;;;;;;5033494;28;20215;-57
2023/04/12 13:02:02;;;;;;;0.50;0.50;;;;;;;;;;5025305;28;20593;-57
2023/04/12 13:04:28;;;;;;;0.85;0.80;;;;;;;;;;5032915;28;20181;-57
2023/04/12 13:06:54;;;;;;;1.30;0.60;;;;;;;;;;5024739;28;20431;-57
2023/04/12 13:09:20;;;;;;;0.52;0.52;;;;;;;;;;5025380;28;20191;-57
2023/04/12 13:11:46;;;;;;;0.93;0.70;;;;;;;;;;5025670;28;20180;-58
2023/04/12 13:14:12;;;;;;;0.80;0.80;;;;;;;;;;5030258;28;20582;-58
2023/04/12 13:16:39;;;;;;;1.10;0.60;;;;;;;;;;5023243;28;20267;-58
2023/04/12 13:19:05;;;;;;;0.60;0.60;;;;;;;;;;5025126;28;20183;-58
2023/04/12 13:21:31;;;;;;;0.63;0.63;;;;;;;;;;5027453;28;20183;-58
2023/04/12 13:23:57;;;;;;;0.70;0.60;;;;;;;;;;5024351;28;20297;-58
2023/04/12 13:26:24;;;;;;;0.90;0.60;;;;;;;;;;5020820;28;20176;-58
2023/04/12 13:28:50;;;;;;;0.75;0.50;;;;;;;;;;5029114;28;20171;-58
2023/04/12 13:31:16;;;;;;;0.88;0.70;;;;;;;;;;5029000;28;20188;-58
2023/04/12 13:33:43;;;;;;;0.80;0.60;;;;;;;;;;5025782;28;21772;-57
2023/04/12 13:36:09;;;;;;;0.60;0.60;;;;;;;;;;5011255;28;20187;-57
2023/04/12 13:38:35;;;;;;;0.70;0.70;;;;;;;;;;4991810;28;992086;-59
2023/04/12 13:41:01;;;;;;;1.40;0.70;;;;;;;;;;5035339;28;20183;-59
2023/04/12 13:43:27;;;;;;;5.45;0.90;;;;;;;;;;5029318;28;20190;-59
2023/04/12 13:45:53;;;;;;;1.95;0.90;;;;;;;;;;5022605;28;20188;-59
2023/04/12 13:48:19;;;;;;;0.88;0.80;;;;;;;;;;5029191;28;20184;-59
2023/04/12 13:50:45;;;;;;;1.02;0.57;;;;;;;;;;5025610;28;20188;-59
2023/04/12 13:53:11;;;;;;;2.05;0.70;;;;;;;;;;5030455;28;20567;-59
2023/04/12 13:55:37;;;;;;;1.08;0.65;;;;;;;;;;5028198;28;20191;-59
2023/04/12 13:58:02;;;;;;;2.00;0.60;;;;;;;;;;5016071;28;20219;-60
2023/04/12 14:00:28;;;;;;;2.38;1.00;;;;;;;;;;5031885;28;20488;-60
2023/04/12 14:02:54;;;;;;;3.88;0.82;;;;;;;;;;5033793;28;20283;-59
2023/04/12 14:05:20;;;;;;;3.72;0.80;;;;;;;;;;5030423;28;20207;-59
2023/04/12 14:07:48;;;;;;;1.05;0.60;;;;;;;;;;5029320;28;20239;-59
2023/04/12 14:10:14;;;;;;;0.57;0.57;;;;;;;;;;5025491;28;20180;-60
2023/04/12 14:12:40;;;;;;;1.40;0.70;;;;;;;;;;5027933;28;20195;-59
2023/04/12 14:15:07;;;;;;;0.70;0.50;;;;;;;;;;5028034;28;20180;-59
2023/04/12 14:17:33;;;;;;;2.08;0.60;;;;;;;;;;5031242;28;20214;-60
2023/04/12 14:19:59;;;;;;;3.35;0.73;;;;;;;;;;5028609;28;20483;-60
2023/04/12 14:22:25;;;;;;;1.25;0.60;;;;;;;;;;5032245;28;20204;-59
2023/04/12 14:24:51;;;;;;;0.82;0.70;;;;;;;;;;5026373;28;20218;-59
2023/04/12 14:27:17;;;;;;;0.50;0.47;;;;;;;;;;5024529;28;20604;-59
2023/04/12 14:29:42;;;;;;;0.75;0.50;;;;;;;;;;5030259;28;20205;-60
2023/04/12 14:32:08;;;;;;;1.60;0.75;;;;;;;;;;5030995;28;20188;-59
2023/04/12 14:34:36;;;;;;;0.60;0.50;;;;;;;;;;5030157;28;20199;-60
2023/04/12 14:37:02;;;;;;;1.25;0.70;;;;;;;;;;5028466;28;20196;-59
2023/04/12 14:39:29;;;;;;;2.10;0.63;;;;;;;;;;5030181;28;20203;-59
2023/04/12 14:41:55;;;;;;;0.70;0.70;;;;;;;;;;5025329;28;20168;-59
2023/04/12 14:44:22;;;;;;;0.65;0.50;;;;;;;;;;5030887;28;20259;-59